Time;durP1;ratioP1;P1;durP2;ratioP2;P2;SDS_P1;SDS_P2;PMS_P1;PMS_P2;Temp;Humidity;BMP_temperature;BMP_pressure;BME280_temperature;BME280_humidity;BME280_pressure;Samples;Min_cycle;Max_cycle;Signal;HPM_P1;HPM_P2
2020/12/27 00:00:51;;;;;;;9.90;4.50;;;;;;;4.66;71.17;94700.59;4193457;28;20048;-77
2020/12/27 00:02:52;;;;;;;8.77;4.68;;;;;;;4.69;70.81;94700.38;4195475;28;20053;-77
2020/12/27 00:04:53;;;;;;;8.65;4.20;;;;;;;4.71;70.50;94708.84;4194885;28;20064;-77
2020/12/27 00:06:55;;;;;;;7.53;4.38;;;;;;;4.79;70.74;94706.44;4194838;28;20495;-77
2020/12/27 00:08:56;;;;;;;8.43;5.18;;;;;;;4.86;69.94;94711.97;4193351;28;20056;-76
2020/12/27 00:10:57;;;;;;;9.63;4.03;;;;;;;4.87;70.58;94700.66;4162707;28;20053;-77
2020/12/27 00:12:58;;;;;;;7.35;4.28;;;;;;;4.85;70.26;94703.38;4193741;28;20052;-77
2020/12/27 00:15:00;;;;;;;9.25;4.25;;;;;;;4.90;70.00;94701.25;4193585;28;20049;-78
2020/12/27 00:17:12;;;;;;;6.72;4.43;;;;;;;4.96;69.62;94706.88;4193639;28;20071;-76
2020/12/27 00:19:13;;;;;;;7.72;4.30;;;;;;;5.00;69.97;94706.50;4191555;28;20483;-79
2020/12/27 00:21:14;;;;;;;5.75;3.53;;;;;;;5.02;69.98;94702.00;4193698;28;20565;-77
2020/12/27 00:23:15;;;;;;;5.15;3.45;;;;;;;5.08;69.38;94698.09;4180066;28;20143;-78
2020/12/27 00:25:16;;;;;;;6.15;3.65;;;;;;;5.13;70.04;94701.13;4193545;28;20077;-77
2020/12/27 00:27:18;;;;;;;5.07;3.45;;;;;;;5.17;69.85;94701.72;4193706;28;20135;-77
2020/12/27 00:29:20;;;;;;;4.43;3.22;;;;;;;5.11;70.54;94700.44;4174981;28;20098;-77
2020/12/27 00:31:21;;;;;;;4.85;3.25;;;;;;;5.11;70.15;94698.66;4179427;28;20052;-78
2020/12/27 00:33:22;;;;;;;4.90;3.38;;;;;;;5.13;69.46;94701.13;4157869;28;20129;-77
2020/12/27 00:35:23;;;;;;;5.63;3.08;;;;;;;5.13;69.57;94682.94;4187820;28;20060;-76
2020/12/27 00:37:24;;;;;;;6.22;3.63;;;;;;;5.17;69.90;94683.53;4193393;28;20045;-79
2020/12/27 00:39:26;;;;;;;5.53;3.80;;;;;;;5.06;70.45;94687.00;4166155;28;20144;-78
2020/12/27 00:41:27;;;;;;;6.75;4.03;;;;;;;4.86;71.94;94689.47;4204135;28;20456;-77
2020/12/27 00:43:28;;;;;;;6.82;3.90;;;;;;;4.45;73.26;94693.59;4180690;28;20072;-77
2020/12/27 00:45:30;;;;;;;5.70;3.70;;;;;;;4.01;74.69;94697.09;4193128;28;20366;-77
2020/12/27 00:47:31;;;;;;;5.50;3.83;;;;;;;3.98;75.51;94700.75;4192958;28;20049;-77
2020/12/27 00:49:32;;;;;;;4.90;3.70;;;;;;;3.92;75.35;94696.03;4187398;28;20066;-77
2020/12/27 00:51:33;;;;;;;5.68;3.53;;;;;;;3.73;75.92;94698.41;4192401;28;20106;-75
2020/12/27 00:53:35;;;;;;;5.30;3.50;;;;;;;3.74;75.86;94700.03;4183902;28;20048;-77
2020/12/27 00:55:36;;;;;;;4.45;3.20;;;;;;;3.86;76.51;94699.09;4181574;28;20137;-79
2020/12/27 00:57:37;;;;;;;5.00;3.58;;;;;;;3.84;76.38;94693.22;4190259;28;20492;-78
2020/12/27 00:59:38;;;;;;;5.65;3.35;;;;;;;3.91;76.79;94696.97;4185265;28;20041;-77
2020/12/27 01:01:39;;;;;;;4.63;3.22;;;;;;;4.03;75.91;94700.38;4186419;28;20084;-76
2020/12/27 01:03:44;;;;;;;6.40;3.50;;;;;;;4.22;75.59;94697.19;4193333;28;20062;-79
2020/12/27 01:05:45;;;;;;;7.28;3.72;;;;;;;4.40;74.93;94693.13;4191713;28;20053;-79
2020/12/27 01:07:47;;;;;;;5.57;3.55;;;;;;;4.52;74.49;94693.94;4192210;28;20044;-75
2020/12/27 01:09:48;;;;;;;4.82;3.30;;;;;;;4.65;73.97;94689.41;4158917;28;20687;-77
2020/12/27 01:11:49;;;;;;;7.32;3.90;;;;;;;4.74;74.19;94693.03;4184976;28;20082;-76
2020/12/27 01:13:51;;;;;;;5.88;3.75;;;;;;;4.79;73.01;94688.28;4193265;28;20424;-80
2020/12/27 01:15:52;;;;;;;6.60;3.78;;;;;;;4.87;73.69;94687.69;4191244;28;20469;-77
2020/12/27 01:17:54;;;;;;;5.28;3.70;;;;;;;4.91;72.83;94687.31;4157693;28;20092;-67
2020/12/27 01:19:55;;;;;;;6.13;3.83;;;;;;;4.96;72.93;94686.91;4192988;28;20333;-69
2020/12/27 01:21:56;;;;;;;4.90;3.47;;;;;;;4.88;73.52;94682.38;4191900;28;20055;-70
2020/12/27 01:23:58;;;;;;;6.05;4.28;;;;;;;4.82;72.98;94688.06;4174737;28;20475;-68
2020/12/27 01:25:59;;;;;;;6.05;3.90;;;;;;;4.81;73.57;94682.97;4173687;28;20079;-68
2020/12/27 01:28:01;;;;;;;5.65;4.05;;;;;;;4.83;73.20;94674.13;4175724;28;20063;-66
2020/12/27 01:30:03;;;;;;;6.35;4.15;;;;;;;4.90;73.41;94675.28;4191963;28;20389;-69
2020/12/27 01:32:05;;;;;;;5.80;3.88;;;;;;;4.87;73.90;94672.91;4194003;28;20060;-68
2020/12/27 01:34:06;;;;;;;5.50;3.88;;;;;;;4.91;74.01;94679.50;4190143;28;20048;-69
2020/12/27 01:36:08;;;;;;;5.70;3.80;;;;;;;4.99;73.76;94681.50;4174557;28;20508;-69
2020/12/27 01:38:09;;;;;;;6.85;3.85;;;;;;;5.06;74.17;94671.44;4189439;28;20062;-68
2020/12/27 01:40:10;;;;;;;5.60;4.03;;;;;;;5.18;73.65;94675.59;4192695;28;20048;-68
2020/12/27 01:42:12;;;;;;;6.88;4.00;;;;;;;5.17;73.16;94671.34;4193068;28;20415;-69
2020/12/27 01:44:14;;;;;;;6.07;3.92;;;;;;;5.04;73.75;94662.94;4171432;28;20048;-78
2020/12/27 01:46:15;;;;;;;6.40;3.60;;;;;;;4.94;73.72;94657.66;4176289;28;20061;-76
2020/12/27 01:48:16;;;;;;;6.45;4.18;;;;;;;4.85;74.27;94658.44;4174195;28;20053;-76
2020/12/27 01:50:21;;;;;;;5.43;3.83;;;;;;;4.85;75.05;94648.84;4192475;28;20052;-78
2020/12/27 01:52:22;;;;;;;7.85;4.30;;;;;;;4.92;74.61;94644.81;4173814;28;20057;-75
2020/12/27 01:54:23;;;;;;;7.50;4.20;;;;;;;5.04;74.56;94647.38;4190150;28;20081;-78
2020/12/27 01:56:43;;;;;;;6.78;4.20;;;;;;;5.05;74.01;94633.41;4174364;28;20479;-78
2020/12/27 01:58:51;;;;;;;6.03;4.35;;;;;;;4.95;74.98;94641.16;4172672;28;20082;-79
2020/12/27 02:00:54;;;;;;;7.30;4.22;;;;;;;4.90;74.52;94636.34;4191083;28;20052;-77
2020/12/27 02:02:55;;;;;;;8.57;4.22;;;;;;;4.88;74.77;94637.41;4192580;28;20063;-78
2020/12/27 02:04:56;;;;;;;6.53;4.05;;;;;;;4.87;74.67;94644.38;4173841;28;20471;-76
2020/12/27 02:06:58;;;;;;;5.53;3.92;;;;;;;4.90;75.66;94645.88;4174669;28;20132;-76
2020/12/27 02:08:59;;;;;;;8.15;4.15;;;;;;;4.98;75.11;94634.88;4189751;28;20132;-77
2020/12/27 02:11:00;;;;;;;5.93;4.05;;;;;;;5.05;75.61;94629.03;4191699;28;20048;-77
2020/12/27 02:13:02;;;;;;;5.88;4.38;;;;;;;5.09;75.01;94630.44;4192144;28;20144;-77
2020/12/27 02:15:04;;;;;;;7.70;4.20;;;;;;;5.14;75.03;94630.03;4172800;28;20044;-78
2020/12/27 02:17:06;;;;;;;6.93;4.13;;;;;;;4.98;75.54;94612.34;4174697;28;20045;-75
2020/12/27 02:19:12;;;;;;;7.10;4.25;;;;;;;4.84;75.50;94618.69;4174318;28;20104;-78
2020/12/27 02:21:14;;;;;;;6.82;4.22;;;;;;;4.69;76.30;94625.13;4179928;28;20063;-80
2020/12/27 02:23:16;;;;;;;5.50;4.05;;;;;;;4.75;77.08;94618.59;4173631;28;20053;-79
2020/12/27 02:25:17;;;;;;;5.22;4.03;;;;;;;4.79;76.44;94620.81;4173140;28;20063;-78
2020/12/27 02:27:18;;;;;;;6.32;4.22;;;;;;;4.88;76.18;94622.66;4190968;28;20291;-79
2020/12/27 02:29:22;;;;;;;5.00;3.85;;;;;;;4.99;76.35;94613.16;4176711;28;20409;-77
2020/12/27 02:31:45;;;;;;;6.55;4.32;;;;;;;5.07;75.75;94613.34;4173249;28;20454;-79
2020/12/27 02:33:46;;;;;;;6.68;4.22;;;;;;;5.12;75.20;94611.19;4165754;28;20107;-77
2020/12/27 02:35:48;;;;;;;6.57;4.50;;;;;;;5.11;75.30;94612.13;4172331;28;20052;-78
2020/12/27 02:37:49;;;;;;;7.50;4.40;;;;;;;5.13;75.51;94605.84;4173832;28;20310;-78
2020/12/27 02:39:51;;;;;;;5.68;4.70;;;;;;;5.16;75.77;94607.38;4189099;28;20075;-77
2020/12/27 02:41:52;;;;;;;7.10;4.40;;;;;;;5.07;75.20;94601.16;4172879;28;20053;-78
2020/12/27 02:43:53;;;;;;;8.10;5.03;;;;;;;5.00;76.33;94601.81;4179646;28;20219;-76
2020/12/27 02:45:55;;;;;;;6.75;4.55;;;;;;;4.97;76.67;94599.47;4190913;28;20139;-77
2020/12/27 02:47:56;;;;;;;5.88;4.70;;;;;;;5.03;76.53;94601.56;4191249;28;20573;-78
2020/12/27 02:49:57;;;;;;;7.57;4.78;;;;;;;5.08;76.26;94597.66;4174594;28;20063;-77
2020/12/27 02:51:58;;;;;;;7.75;5.30;;;;;;;5.13;75.34;94597.25;4174086;28;20465;-77
2020/12/27 02:53:59;;;;;;;7.43;5.82;;;;;;;5.14;75.68;94596.28;4191224;28;20056;-77
2020/12/27 02:56:01;;;;;;;8.07;5.00;;;;;;;5.12;75.57;94593.84;4192797;28;20135;-76
2020/12/27 02:58:02;;;;;;;9.35;6.20;;;;;;;5.18;75.64;94592.47;4189084;28;20049;-75
2020/12/27 03:00:05;;;;;;;8.38;6.55;;;;;;;5.09;76.44;94588.06;4173707;28;20041;-76
2020/12/27 03:02:06;;;;;;;9.88;7.55;;;;;;;5.10;76.45;94585.34;4174435;28;20045;-78
2020/12/27 03:04:07;;;;;;;9.73;7.18;;;;;;;5.03;76.05;94593.78;4174074;28;20471;-77
2020/12/27 03:06:09;;;;;;;11.13;8.15;;;;;;;4.89;76.61;94590.56;4197227;28;20329;-77
2020/12/27 03:08:10;;;;;;;11.05;7.90;;;;;;;4.81;76.79;94592.94;4173400;28;20244;-77
2020/12/27 03:10:12;;;;;;;10.70;7.30;;;;;;;4.84;77.31;94597.91;4172933;28;20119;-76
2020/12/27 03:12:13;;;;;;;10.73;8.00;;;;;;;4.91;77.13;94593.03;4150734;28;20049;-77
2020/12/27 03:14:14;;;;;;;11.52;8.48;;;;;;;4.80;76.59;94593.09;4193288;28;20130;-76
2020/12/27 03:16:16;;;;;;;12.90;8.55;;;;;;;4.74;77.29;94589.22;4193534;28;20052;-77
2020/12/27 03:18:18;;;;;;;11.98;8.18;;;;;;;4.77;77.88;94598.53;4194810;28;20070;-76
2020/12/27 03:20:19;;;;;;;14.95;8.57;;;;;;;4.78;78.05;94595.00;4176578;28;20041;-78
2020/12/27 03:22:21;;;;;;;10.27;8.18;;;;;;;4.85;77.40;94596.13;4194559;28;20419;-77
2020/12/27 03:24:22;;;;;;;11.57;8.52;;;;;;;4.46;78.66;94588.88;4194677;28;20079;-76
2020/12/27 03:26:23;;;;;;;13.05;9.13;;;;;;;4.34;79.22;94584.69;4176401;28;20052;-76
2020/12/27 03:28:25;;;;;;;14.60;9.43;;;;;;;4.35;79.88;94593.31;4198525;28;20072;-78
2020/12/27 03:30:26;;;;;;;12.70;8.73;;;;;;;4.39;79.89;94600.72;4194163;28;20059;-77
2020/12/27 03:32:27;;;;;;;11.23;8.45;;;;;;;4.50;79.44;94595.47;4198107;28;20193;-75
2020/12/27 03:34:29;;;;;;;13.82;9.05;;;;;;;4.47;79.23;94590.53;4193599;28;20052;-78
2020/12/27 03:36:30;;;;;;;18.80;9.80;;;;;;;4.29;80.24;94592.03;4193216;28;20272;-76
2020/12/27 03:38:31;;;;;;;15.95;10.43;;;;;;;4.13;80.71;94592.44;4192264;28;20048;-78
2020/12/27 03:40:32;;;;;;;16.50;11.30;;;;;;;4.01;81.53;94586.44;4190422;28;20064;-76
2020/12/27 03:42:34;;;;;;;16.25;11.30;;;;;;;4.11;81.14;94596.91;4175704;28;20476;-76
2020/12/27 03:44:35;;;;;;;15.13;12.10;;;;;;;4.16;81.00;94588.78;4192696;28;20067;-77
2020/12/27 03:46:36;;;;;;;15.68;12.05;;;;;;;3.85;82.00;94597.22;4194554;28;20419;-78
2020/12/27 03:48:38;;;;;;;21.98;13.70;;;;;;;3.81;82.88;94590.63;4194445;28;20048;-77
2020/12/27 03:50:39;;;;;;;17.65;12.27;;;;;;;3.83;82.31;94590.47;4199284;28;20136;-76
2020/12/27 03:52:41;;;;;;;20.90;13.10;;;;;;;3.75;82.97;94588.50;4149638;28;20148;-77
2020/12/27 03:54:42;;;;;;;18.35;13.82;;;;;;;3.55;83.74;94582.31;4189987;28;20515;-77
2020/12/27 03:56:43;;;;;;;18.75;14.25;;;;;;;3.51;84.23;94583.47;4175376;28;20049;-76
2020/12/27 03:58:44;;;;;;;18.92;14.07;;;;;;;3.60;84.16;94577.56;4201681;28;20044;-77
2020/12/27 04:00:46;;;;;;;18.10;13.55;;;;;;;3.62;84.17;94583.47;4163907;28;20053;-70
2020/12/27 04:02:47;;;;;;;19.73;13.60;;;;;;;3.53;84.63;94585.94;4203384;28;20419;-69
2020/12/27 04:04:49;;;;;;;18.88;13.68;;;;;;;3.58;84.50;94582.06;4195394;28;20494;-69
2020/12/27 04:06:50;;;;;;;23.60;13.55;;;;;;;3.67;84.23;94577.91;4199601;28;20053;-69
2020/12/27 04:08:51;;;;;;;22.85;14.40;;;;;;;3.66;83.79;94574.50;4174651;28;20044;-69
2020/12/27 04:10:52;;;;;;;20.20;13.82;;;;;;;3.82;83.64;94571.53;4192643;28;20053;-70
2020/12/27 04:12:54;;;;;;;20.70;14.13;;;;;;;3.99;83.56;94577.97;4175024;28;20084;-68
2020/12/27 04:14:55;;;;;;;19.33;14.70;;;;;;;4.13;82.57;94573.44;4191583;28;20049;-68
2020/12/27 04:16:56;;;;;;;21.02;13.75;;;;;;;4.19;81.57;94572.97;4194220;28;20118;-68
2020/12/27 04:18:57;;;;;;;23.40;15.00;;;;;;;4.05;82.43;94576.66;4193023;28;20384;-68
2020/12/27 04:21:01;;;;;;;19.73;14.55;;;;;;;4.07;82.61;94575.59;4175296;28;20567;-69
2020/12/27 04:23:03;;;;;;;19.77;14.82;;;;;;;4.06;82.55;94579.13;4192812;28;20048;-69
2020/12/27 04:25:04;;;;;;;21.65;14.98;;;;;;;4.14;82.44;94575.94;4193163;28;20129;-69
2020/12/27 04:27:06;;;;;;;19.00;14.55;;;;;;;4.04;82.21;94577.59;4174920;28;20290;-69
2020/12/27 04:29:08;;;;;;;21.33;15.27;;;;;;;3.90;82.97;94573.53;4193346;28;20049;-79
2020/12/27 04:31:18;;;;;;;21.10;15.18;;;;;;;3.89;83.28;94579.63;4175293;28;20045;-77
2020/12/27 04:33:19;;;;;;;24.05;15.85;;;;;;;4.02;82.63;94576.91;4174268;28;20053;-79
2020/12/27 04:35:20;;;;;;;20.85;15.85;;;;;;;4.18;82.58;94581.69;4194207;28;20056;-77
2020/12/27 04:37:27;;;;;;;20.42;14.45;;;;;;;4.20;81.58;94580.63;4195375;28;20052;-77
2020/12/27 04:39:28;;;;;;;24.05;16.45;;;;;;;4.04;82.44;94580.19;4188122;28;20121;-77
2020/12/27 04:41:30;;;;;;;27.27;16.15;;;;;;;4.04;82.70;94578.44;4172431;28;20132;-77
2020/12/27 04:43:31;;;;;;;21.90;14.18;;;;;;;4.14;82.60;94575.94;4176969;28;20435;-77
2020/12/27 04:45:33;;;;;;;25.52;15.20;;;;;;;4.03;82.52;94568.19;4195583;28;20061;-78
2020/12/27 04:47:35;;;;;;;23.50;15.95;;;;;;;3.95;83.38;94573.97;4173125;28;20075;-78
2020/12/27 04:49:36;;;;;;;23.73;16.35;;;;;;;3.90;83.54;94579.53;4173427;28;20061;-77
2020/12/27 04:51:38;;;;;;;22.73;15.52;;;;;;;3.85;83.87;94578.22;4175151;28;20048;-78
2020/12/27 04:53:40;;;;;;;20.50;15.40;;;;;;;3.87;84.00;94576.34;4193227;28;20084;-77
2020/12/27 04:55:41;;;;;;;23.20;15.82;;;;;;;3.87;83.97;94578.94;4161202;28;20053;-68
2020/12/27 04:57:43;;;;;;;23.60;16.10;;;;;;;3.84;83.76;94577.41;4173953;28;20060;-68
2020/12/27 04:59:48;;;;;;;27.42;19.73;;;;;;;3.83;84.71;94574.94;4173947;28;20061;-68
2020/12/27 05:01:50;;;;;;;30.13;19.90;;;;;;;3.83;84.40;94572.34;4175422;28;20062;-68
2020/12/27 05:03:55;;;;;;;23.90;16.60;;;;;;;3.89;84.54;94577.88;4190535;28;20064;-69
2020/12/27 05:05:56;;;;;;;24.20;15.13;;;;;;;3.83;84.77;94580.13;4194540;28;20128;-69
2020/12/27 05:07:57;;;;;;;19.75;15.13;;;;;;;3.81;85.02;94569.06;4173605;28;20056;-69
2020/12/27 05:09:59;;;;;;;20.50;14.88;;;;;;;3.83;84.67;94577.53;4192872;28;20433;-69
2020/12/27 05:12:00;;;;;;;22.40;16.13;;;;;;;3.88;84.94;94567.63;4173481;28;20104;-69
2020/12/27 05:14:03;;;;;;;23.25;15.18;;;;;;;3.78;84.90;94564.13;4191601;28;20113;-68
2020/12/27 05:16:04;;;;;;;24.45;15.73;;;;;;;3.62;85.88;94570.50;4193050;28;20137;-68
2020/12/27 05:18:07;;;;;;;24.10;15.93;;;;;;;3.67;85.80;94570.16;4174420;28;20044;-68
2020/12/27 05:20:12;;;;;;;24.98;15.73;;;;;;;3.81;85.36;94563.91;4174261;28;20055;-68
2020/12/27 05:22:13;;;;;;;21.80;15.38;;;;;;;3.72;85.60;94564.59;4192593;28;20470;-69
2020/12/27 05:24:17;;;;;;;23.08;15.55;;;;;;;3.79;85.24;94576.97;4191212;28;20086;-68
2020/12/27 05:26:19;;;;;;;;;;;;;;;3.91;85.47;94575.16;4193409;28;20468;-69
2020/12/27 05:28:20;;;;;;;19.58;13.98;;;;;;;4.05;85.29;94576.66;4174451;28;20318;-76
2020/12/27 05:30:25;;;;;;;25.02;15.63;;;;;;;3.82;85.38;94568.94;4192669;28;20032;-76
2020/12/27 05:32:30;;;;;;;22.13;14.80;;;;;;;3.87;85.14;94556.44;4176531;28;20060;-77
2020/12/27 05:34:32;;;;;;;20.05;13.88;;;;;;;3.72;85.87;94567.19;4189250;28;20171;-77
2020/12/27 05:36:33;;;;;;;22.48;15.25;;;;;;;3.85;85.96;94565.28;4190102;28;20074;-77
2020/12/27 05:38:34;;;;;;;21.67;15.02;;;;;;;4.03;85.74;94569.00;4175943;28;20049;-77
2020/12/27 05:40:38;;;;;;;25.13;14.77;;;;;;;4.01;84.72;94565.72;4191212;28;20053;-77
2020/12/27 05:42:39;;;;;;;22.42;14.80;;;;;;;3.98;85.24;94563.38;4173795;28;20049;-77
2020/12/27 05:44:41;;;;;;;21.55;14.68;;;;;;;3.93;85.61;94555.13;4188977;28;20087;-76
2020/12/27 05:46:45;;;;;;;20.73;14.18;;;;;;;3.76;86.24;94555.63;4188191;28;20079;-76
2020/12/27 05:48:47;;;;;;;23.70;14.65;;;;;;;3.76;86.60;94560.81;4181216;28;20148;-77
2020/12/27 05:50:50;;;;;;;21.10;14.07;;;;;;;3.88;86.17;94555.50;4187916;28;20170;-77
2020/12/27 05:52:58;;;;;;;;;;;;;;;4.03;85.84;94548.25;4174867;28;20056;-82
2020/12/27 05:55:02;;;;;;;20.13;12.43;;;;;;;4.06;85.01;94548.00;4200171;28;19931;-77
2020/12/27 05:57:04;;;;;;;17.85;12.25;;;;;;;4.16;85.34;94529.97;4171158;28;20062;-69
2020/12/27 05:59:05;;;;;;;18.15;11.60;;;;;;;4.13;85.06;94535.41;4169917;28;20046;-68
2020/12/27 06:01:07;;;;;;;18.48;10.80;;;;;;;4.10;85.73;94531.25;4200640;28;20217;-69
2020/12/27 06:03:17;;;;;;;15.02;9.98;;;;;;;4.07;85.50;94538.47;4169744;28;20520;-68
2020/12/27 06:05:31;;;;;;;15.07;8.90;;;;;;;4.11;85.82;94534.69;4191960;28;20044;-69
2020/12/27 06:07:34;;;;;;;14.32;9.40;;;;;;;4.19;85.93;94534.88;4143211;28;20050;-69
2020/12/27 06:09:59;;;;;;;13.80;7.80;;;;;;;4.31;84.88;94533.06;4190606;28;20462;-70
2020/12/27 06:12:02;;;;;;;11.02;7.53;;;;;;;4.38;85.06;94531.63;4190663;28;20101;-68
2020/12/27 06:14:15;;;;;;;22.90;15.17;;;;;;;4.27;85.16;94529.09;4171877;28;20052;-69
2020/12/27 06:16:19;;;;;;;12.10;7.55;;;;;;;4.25;85.38;94525.78;4192247;28;20321;-67
2020/12/27 06:18:20;;;;;;;;;;;;;;;4.29;85.95;94538.38;4173843;28;20458;-69
2020/12/27 06:20:32;;;;;;;13.38;7.30;;;;;;;4.32;85.53;94524.34;4192111;28;19971;-70
2020/12/27 06:22:40;;;;;;;9.18;6.32;;;;;;;4.37;85.61;94540.38;4165909;28;20074;-70
2020/12/27 06:24:42;;;;;;;9.35;6.72;;;;;;;4.42;84.93;94537.38;4173472;28;20044;-69
2020/12/27 06:26:44;;;;;;;9.63;7.00;;;;;;;4.45;85.17;94531.94;4171172;28;20563;-71
2020/12/27 06:28:46;;;;;;;11.10;7.30;;;;;;;4.53;84.52;94544.28;4170907;28;20081;-69
2020/12/27 06:30:52;;;;;;;19.95;10.55;;;;;;;4.53;84.83;94531.31;4188287;28;20052;-69
2020/12/27 06:33:00;;;;;;;11.10;7.35;;;;;;;4.53;84.73;94532.13;4171490;28;20542;-70
2020/12/27 06:35:04;;;;;;;11.07;7.13;;;;;;;4.61;84.77;94541.88;4156264;28;20389;-68
2020/12/27 06:37:06;;;;;;;12.80;6.72;;;;;;;4.64;84.37;94541.63;4154805;28;20049;-69
2020/12/27 06:39:29;;;;;;;16.40;9.35;;;;;;;4.69;84.63;94535.13;4166755;28;20047;-69
2020/12/27 06:41:30;;;;;;;11.52;7.53;;;;;;;4.72;84.49;94514.09;4148694;28;20510;-68
2020/12/27 06:43:40;;;;;;;10.32;6.93;;;;;;;4.67;84.42;94531.00;4156638;28;20087;-70
2020/12/27 06:45:41;;;;;;;10.43;6.53;;;;;;;4.67;84.55;94515.44;4165496;28;20045;-69
2020/12/27 06:47:48;;;;;;;11.65;6.50;;;;;;;4.67;84.79;94508.47;4169241;28;20455;-69
2020/12/27 06:50:19;;;;;;;11.35;6.35;;;;;;;4.61;85.14;94521.94;4169360;28;20084;-72
2020/12/27 06:52:22;;;;;;;9.55;6.05;;;;;;;4.66;84.88;94517.19;4159982;28;20439;-69
2020/12/27 06:54:42;;;;;;;11.00;6.53;;;;;;;4.67;84.81;94525.81;4145470;28;20049;-68
2020/12/27 06:56:45;;;;;;;10.77;6.70;;;;;;;4.69;84.92;94521.34;4161719;28;20150;-77
2020/12/27 06:59:20;;;;;;;8.27;6.10;;;;;;;4.70;84.45;94526.38;4154135;28;20045;-76
2020/12/27 07:01:22;;;;;;;13.27;7.22;;;;;;;4.68;84.96;94517.88;4148459;28;20081;-78
2020/12/27 07:03:23;;;;;;;11.07;6.38;;;;;;;4.78;84.49;94520.56;4164206;28;20634;-76
2020/12/27 07:05:28;;;;;;;12.43;7.18;;;;;;;4.79;84.86;94509.22;4164194;28;20060;-79
2020/12/27 07:07:46;;;;;;;14.18;8.85;;;;;;;4.84;84.20;94524.38;4159666;28;20061;-77
2020/12/27 07:09:49;;;;;;;40.78;17.58;;;;;;;4.83;84.32;94531.38;4161602;28;20063;-80
2020/12/27 07:12:08;;;;;;;27.67;15.40;;;;;;;4.87;83.96;94527.56;4161392;28;20049;-78
2020/12/27 07:14:11;;;;;;;13.80;8.90;;;;;;;4.84;84.37;94527.84;4175859;28;20161;-79
2020/12/27 07:16:14;;;;;;;10.73;6.72;;;;;;;4.72;84.47;94510.69;4174867;28;20045;-79
2020/12/27 07:18:27;;;;;;;9.23;6.82;;;;;;;4.77;84.41;94512.88;4159880;28;20057;-78
2020/12/27 07:20:30;;;;;;;14.45;7.38;;;;;;;4.74;84.64;94523.53;4160527;28;20107;-79
2020/12/27 07:22:32;;;;;;;11.32;6.32;;;;;;;4.78;84.48;94524.94;4161465;28;20057;-78
2020/12/27 07:24:35;;;;;;;10.00;6.50;;;;;;;4.80;84.18;94510.88;4145872;28;20050;-69
2020/12/27 07:26:43;;;;;;;12.18;7.13;;;;;;;4.80;84.35;94521.25;4143375;28;20107;-69
2020/12/27 07:28:44;;;;;;;13.65;8.30;;;;;;;4.86;83.87;94512.94;4161902;28;20152;-69
2020/12/27 07:30:48;;;;;;;10.25;6.90;;;;;;;4.81;83.86;94519.47;4162423;28;20460;-69
2020/12/27 07:32:49;;;;;;;9.05;6.53;;;;;;;4.84;83.43;94527.00;4171576;28;20374;-70
2020/12/27 07:34:55;;;;;;;9.40;6.85;;;;;;;4.80;83.77;94510.88;4174181;28;20067;-69
2020/12/27 07:37:07;;;;;;;10.73;7.72;;;;;;;4.75;83.78;94507.00;4168921;28;20045;-69
2020/12/27 07:39:11;;;;;;;11.77;6.75;;;;;;;4.75;84.38;94513.00;4158935;28;20191;-69
2020/12/27 07:41:23;;;;;;;10.32;6.88;;;;;;;4.70;83.94;94526.38;4153976;28;20122;-68
2020/12/27 07:43:27;;;;;;;12.80;7.28;;;;;;;4.70;84.41;94522.97;4140116;28;20053;-69
2020/12/27 07:45:28;;;;;;;11.55;7.13;;;;;;;4.47;84.21;94504.94;4154197;28;20051;-68
2020/12/27 07:47:29;;;;;;;10.27;7.70;;;;;;;4.44;84.80;94499.19;4160017;28;20840;-68
2020/12/27 07:49:30;;;;;;;11.13;7.00;;;;;;;4.41;85.06;94500.25;4159965;28;20727;-79
2020/12/27 07:51:32;;;;;;;10.98;7.40;;;;;;;4.41;85.13;94509.78;4161750;28;20535;-77
2020/12/27 07:53:33;;;;;;;10.65;6.95;;;;;;;4.48;85.15;94509.16;4163073;28;20088;-80
2020/12/27 07:55:38;;;;;;;12.48;7.75;;;;;;;4.60;85.00;94514.28;4161192;28;20053;-79
2020/12/27 07:57:44;;;;;;;11.80;8.05;;;;;;;4.42;85.17;94520.03;4160941;28;20049;-79
2020/12/27 08:00:06;;;;;;;11.77;7.38;;;;;;;4.42;84.92;94514.03;4156260;28;20103;-76
2020/12/27 08:02:07;;;;;;;12.90;7.05;;;;;;;4.39;85.50;94509.94;4161341;28;20056;-78
2020/12/27 08:04:09;;;;;;;11.60;7.25;;;;;;;4.45;84.87;94509.44;4161411;28;20045;-79
2020/12/27 08:06:16;;;;;;;9.95;7.22;;;;;;;4.49;84.74;94508.22;4159781;28;20046;-78
2020/12/27 08:08:22;;;;;;;10.80;6.72;;;;;;;4.49;85.37;94497.00;4145213;28;20049;-78
2020/12/27 08:10:26;;;;;;;9.35;7.05;;;;;;;4.54;85.37;94499.22;4162145;28;20053;-77
2020/12/27 08:12:28;;;;;;;10.85;7.57;;;;;;;4.51;85.38;94508.91;4153162;28;20045;-79
2020/12/27 08:14:30;;;;;;;13.52;6.80;;;;;;;4.59;85.23;94499.69;4164837;28;20393;-81
2020/12/27 08:16:32;;;;;;;11.38;8.07;;;;;;;4.60;85.33;94491.75;4160319;28;20137;-80
2020/12/27 08:18:33;;;;;;;11.48;7.50;;;;;;;4.67;84.83;94486.91;4158449;28;20124;-79
2020/12/27 08:21:03;;;;;;;10.75;7.15;;;;;;;4.68;84.86;94480.75;4156086;28;20057;-78
2020/12/27 08:23:08;;;;;;;11.18;7.35;;;;;;;4.79;84.84;94485.84;4151975;28;20547;-78
2020/12/27 08:25:12;;;;;;;10.25;7.18;;;;;;;4.79;84.58;94487.63;4162782;28;20053;-76
2020/12/27 08:27:13;;;;;;;12.98;7.80;;;;;;;4.86;84.87;94473.19;4161018;28;20123;-77
2020/12/27 08:29:25;;;;;;;9.88;7.05;;;;;;;4.79;84.37;94475.47;4163431;28;20063;-78
2020/12/27 08:31:27;;;;;;;11.65;7.40;;;;;;;4.92;84.52;94489.03;4152132;28;20057;-79
2020/12/27 08:33:29;;;;;;;10.07;7.82;;;;;;;5.00;83.99;94485.81;4168327;28;20068;-79
2020/12/27 08:35:30;;;;;;;11.20;8.52;;;;;;;5.07;83.40;94488.72;4179313;28;20519;-79
2020/12/27 08:37:34;;;;;;;13.93;8.32;;;;;;;5.12;83.65;94494.34;4175598;28;20072;-78
2020/12/27 08:39:43;;;;;;;;;;;;;;;5.09;83.92;94484.22;4172947;28;20049;-78
2020/12/27 08:41:52;;;;;;;11.90;6.97;;;;;;;5.01;83.40;94482.28;4177246;28;19967;-80
2020/12/27 08:44:07;;;;;;;13.55;8.57;;;;;;;4.95;83.78;94474.16;4175593;28;20463;-77
2020/12/27 08:46:11;;;;;;;13.60;8.50;;;;;;;4.85;84.81;94476.72;4162029;28;20058;-79
2020/12/27 08:48:18;;;;;;;14.63;9.63;;;;;;;4.75;85.44;94470.66;4176121;28;20499;-77
2020/12/27 08:50:24;;;;;;;32.60;22.65;;;;;;;4.79;85.33;94466.88;4192153;28;20045;-79
2020/12/27 08:52:26;;;;;;;14.32;10.05;;;;;;;4.82;85.56;94474.38;4176302;28;20142;-79
2020/12/27 08:54:27;;;;;;;14.30;9.57;;;;;;;4.91;85.46;94474.44;4175477;28;20110;-79
2020/12/27 08:56:28;;;;;;;13.40;9.32;;;;;;;4.92;85.26;94470.88;4174876;28;20103;-79
2020/12/27 08:58:29;;;;;;;12.68;9.10;;;;;;;5.02;85.44;94470.13;4174526;28;20140;-79
2020/12/27 09:00:34;;;;;;;14.82;8.30;;;;;;;5.12;85.35;94465.78;4174983;28;20044;-79
2020/12/27 09:02:36;;;;;;;11.38;7.82;;;;;;;5.29;84.56;94465.16;4176643;28;20067;-77
2020/12/27 09:04:37;;;;;;;9.80;6.95;;;;;;;5.37;83.95;94466.25;4173842;28;20045;-77
2020/12/27 09:06:38;;;;;;;9.77;7.05;;;;;;;5.48;83.91;94463.53;4173760;28;20052;-80
2020/12/27 09:08:40;;;;;;;9.30;6.68;;;;;;;5.50;84.06;94461.63;4175295;28;20130;-81
2020/12/27 09:10:41;;;;;;;8.82;5.80;;;;;;;5.58;83.51;94469.59;4167857;28;20044;-81
2020/12/27 09:12:56;;;;;;;9.98;6.00;;;;;;;5.66;83.88;94469.75;4174940;28;20493;-78
2020/12/27 09:14:57;;;;;;;9.70;6.28;;;;;;;5.74;83.30;94463.84;4168362;28;20136;-76
2020/12/27 09:17:04;;;;;;;7.68;5.47;;;;;;;5.85;82.60;94466.34;4158923;28;20061;-78
2020/12/27 09:19:10;;;;;;;8.68;5.03;;;;;;;5.98;82.88;94471.31;4172751;28;20095;-82
2020/12/27 09:21:11;;;;;;;8.70;5.35;;;;;;;5.99;82.06;94454.72;4175583;28;20539;-78
2020/12/27 09:23:14;;;;;;;7.65;4.90;;;;;;;5.97;82.37;94458.44;4169109;28;20052;-80
2020/12/27 09:25:20;;;;;;;6.13;4.45;;;;;;;5.90;82.20;94450.34;4191380;28;20052;-77
2020/12/27 09:27:24;;;;;;;4.60;3.85;;;;;;;6.02;82.40;94444.03;4172584;28;20059;-81
2020/12/27 09:29:25;;;;;;;5.82;4.18;;;;;;;6.03;82.29;94434.50;4173299;28;20516;-71
2020/12/27 09:31:26;;;;;;;6.93;4.45;;;;;;;6.06;81.81;94432.41;4174049;28;20052;-71
2020/12/27 09:33:29;;;;;;;7.68;4.28;;;;;;;6.08;81.21;94430.50;4184425;28;20049;-71
2020/12/27 09:35:30;;;;;;;6.75;4.43;;;;;;;6.14;81.09;94413.53;4191762;28;20078;-70
2020/12/27 09:37:33;;;;;;;6.97;3.55;;;;;;;6.12;80.91;94403.25;4166603;28;20057;-70
2020/12/27 09:39:34;;;;;;;4.80;3.20;;;;;;;6.10;81.24;94407.78;4189244;28;20059;-70
2020/12/27 09:41:37;;;;;;;4.28;2.92;;;;;;;6.21;80.76;94398.19;4191280;28;20044;-69
2020/12/27 09:43:58;;;;;;;4.68;3.33;;;;;;;6.18;81.11;94395.88;4191876;28;20123;-69